AirNav   Air Wisconsin Up To $57,000 Bonus
 
 932 users online  

43AZ MTAS 1 Heliport
Tonopah, Arizona, USA

GOING TO TONOPAH?


FAA INFORMATION EFFECTIVE 08 SEPTEMBER 2022

Location

FAA Identifier: 43AZ
Lat/Long: 33-23-52.6300N 113-12-54.5300W
33-23.877167N 113-12.908833W
33.3979528,-113.2151472
(estimated)
Elevation: 1184 ft. / 361 m (estimated)
From city: 18 miles SW of TONOPAH, AZ
Time zone: UTC -7 (year round; does not observe DST)
Zip code: 85354

Heliport Operations

Heliport use: Private use, PPR CALL 602-625-0243.
Activation date: 09/2006
Control tower: no
ARTCC: ALBUQUERQUE CENTER
FSS: PRESCOTT FLIGHT SERVICE STATION
Attendance: UNATNDD
Wind indicator: yes
Segmented circle: no

Nearby radio navigation aids

VOR radial/distance  VOR name  Freq  Var
BXKr246/19.8BUCKEYE VORTAC110.6014E
GBNr300/37.9GILA BEND VORTAC116.6014E

Heliport Services

Runway Information

Helipad H1

Dimensions: 50 x 50 ft. / 15 x 15 m
Surface: concrete/turf
Traffic pattern: leftleft

Heliport Ownership and Management from official FAA records

Ownership: Privately-owned
Owner: CAPT. MICHAEL TRAGARZ
3122 W. CETON DR.
LAVEEN, AZ 85339
Phone 602-625-0243
Manager: MICHAEL TRAGARZ
3122 W. CETON DR.
LAVEEN, AZ 85339
Phone 602-625-0243

Heliport Operational Statistics

Aircraft based on the field: 11
Single engine airplanes: 4
Multi engine airplanes: 1
Helicopters: 6
    

Additional Remarks

HELIPAD MKD WITH CONES AT CORNERS.
FOR CD CTC ALBUQUERQUE ARTCC AT 505-856-4861.

Instrument Procedures

There are no published instrument procedures at 43AZ.

Some nearby airports with instrument procedures:

KGYR - Phoenix Goodyear Airport (42 nm E)
KLUF - Luke Air Force Base (42 nm E)
KGEU - Glendale Municipal Airport (47 nm E)
KDVT - Phoenix Deer Valley Airport (59 nm E)
KPHX - Phoenix Sky Harbor International Airport (60 nm E)
 
Loc | Ops | Rwys | IFR | FBO | Links
Com | Nav | Svcs | Stats | Notes
Aerial photo
No photo
 
Sectional chart

 
Airport distance calculator
Flying to MTAS 1 Heliport? Find the distance to fly.

From to 43AZ

Sunrise and sunset
Times for 02-Oct-2022
 Local
(UTC-7)
 Zulu
(UTC)
Morning civil twilight06:0413:04
Sunrise06:2913:29
Sunset18:1601:16
Evening civil twilight18:4001:40

Current date and time
Zulu (UTC)  02-Oct-2022 22:52:34
Local (UTC-7)  02-Oct-2022 15:52:34
 
METAR
KBXK 
27nm E 
022235Z AUTO 00000KT 10SM CLR 34/14 A2984 RMK A01
KGXF 
39nm SE 
022155Z AUTO 32006KT 10SM FEW075 SCT090 35/14 A2982 RMK AO2 LTG DSNT N-NE SLP085 T03520144 FZRANO $
KGYR 
43nm E 
022147Z VRB06KT 10SM SCT100 SCT250 35/14 A2986
KLUF 
43nm E 
022155Z AUTO 16004KT 10SM CLR 35/12 A2983 RMK AO2 SLP085 T03510115 $
KGEU 
47nm E 
022158Z VRB04KT 10SM SCT100 35/12 A2983
TAF
NOTAMs
Click for the latest NOTAMs
NOTAMs are issued by the DoD/FAA and will open in a separate window not controlled by AirNav.

 

 
 

Would you like to see your business listed on this page?

 If your business provides an interesting product or service to pilots, flight crews, aircraft, or users of the MTAS 1 Heliport, you should consider listing it here.  To start the listing process, click on the button below
 
Add a business
 

Other Pages about MTAS 1 Heliport

Update a link
 
Copyright © AirNav, LLC. All rights reserved. Privacy Policy  Contact